sensor_id;sensor_type;location;lat;lon;timestamp;P1;durP1;ratioP1;P2;durP2;ratioP2
9438;SDS011;5176;42.622;25.386;2023-07-29T00:02:10;3.80;;;3.50;;
9438;SDS011;5176;42.622;25.386;2023-07-29T00:04:37;4.90;;;3.50;;
9438;SDS011;5176;42.622;25.386;2023-07-29T00:07:04;4.70;;;3.75;;
9438;SDS011;5176;42.622;25.386;2023-07-29T00:09:31;3.80;;;3.50;;
9438;SDS011;5176;42.622;25.386;2023-07-29T00:12:00;4.50;;;3.50;;
9438;SDS011;5176;42.622;25.386;2023-07-29T00:14:27;4.20;;;3.75;;
9438;SDS011;5176;42.622;25.386;2023-07-29T00:16:54;4.95;;;3.17;;
9438;SDS011;5176;42.622;25.386;2023-07-29T00:19:22;4.65;;;3.85;;
9438;SDS011;5176;42.622;25.386;2023-07-29T00:21:50;3.55;;;3.30;;
9438;SDS011;5176;42.622;25.386;2023-07-29T00:24:17;3.75;;;3.38;;
9438;SDS011;5176;42.622;25.386;2023-07-29T00:26:44;4.78;;;3.40;;
9438;SDS011;5176;42.622;25.386;2023-07-29T00:29:12;3.60;;;3.30;;
9438;SDS011;5176;42.622;25.386;2023-07-29T00:31:40;3.70;;;3.40;;
9438;SDS011;5176;42.622;25.386;2023-07-29T00:34:07;6.25;;;3.72;;
9438;SDS011;5176;42.622;25.386;2023-07-29T00:36:34;5.25;;;3.50;;
9438;SDS011;5176;42.622;25.386;2023-07-29T00:39:01;4.05;;;3.70;;
9438;SDS011;5176;42.622;25.386;2023-07-29T00:41:29;4.47;;;3.60;;
9438;SDS011;5176;42.622;25.386;2023-07-29T00:43:56;5.45;;;3.80;;
9438;SDS011;5176;42.622;25.386;2023-07-29T00:46:24;4.05;;;3.70;;
9438;SDS011;5176;42.622;25.386;2023-07-29T00:48:54;3.80;;;3.50;;
9438;SDS011;5176;42.622;25.386;2023-07-29T00:51:22;4.00;;;3.65;;
9438;SDS011;5176;42.622;25.386;2023-07-29T00:53:49;5.28;;;4.00;;
9438;SDS011;5176;42.622;25.386;2023-07-29T00:56:17;4.13;;;3.72;;
9438;SDS011;5176;42.622;25.386;2023-07-29T00:58:45;3.90;;;3.60;;
9438;SDS011;5176;42.622;25.386;2023-07-29T01:01:12;4.40;;;3.55;;
9438;SDS011;5176;42.622;25.386;2023-07-29T01:03:41;3.72;;;3.42;;
9438;SDS011;5176;42.622;25.386;2023-07-29T01:06:12;3.80;;;3.50;;
9438;SDS011;5176;42.622;25.386;2023-07-29T01:08:49;5.32;;;3.50;;
9438;SDS011;5176;42.622;25.386;2023-07-29T01:11:27;4.47;;;4.07;;
9438;SDS011;5176;42.622;25.386;2023-07-29T01:14:04;3.92;;;3.63;;
9438;SDS011;5176;42.622;25.386;2023-07-29T01:16:38;3.83;;;3.30;;
9438;SDS011;5176;42.622;25.386;2023-07-29T01:22:04;4.10;;;3.80;;
9438;SDS011;5176;42.622;25.386;2023-07-29T01:24:35;4.22;;;3.83;;
9438;SDS011;5176;42.622;25.386;2023-07-29T01:27:02;3.80;;;3.50;;
9438;SDS011;5176;42.622;25.386;2023-07-29T01:29:30;4.80;;;3.70;;
9438;SDS011;5176;42.622;25.386;2023-07-29T01:31:59;4.07;;;3.53;;
9438;SDS011;5176;42.622;25.386;2023-07-29T01:34:32;3.90;;;3.60;;
9438;SDS011;5176;42.622;25.386;2023-07-29T01:37:06;3.72;;;3.42;;
9438;SDS011;5176;42.622;25.386;2023-07-29T01:39:39;4.15;;;3.40;;
9438;SDS011;5176;42.622;25.386;2023-07-29T01:42:08;3.80;;;3.17;;
9438;SDS011;5176;42.622;25.386;2023-07-29T01:44:35;3.47;;;3.28;;
9438;SDS011;5176;42.622;25.386;2023-07-29T01:47:03;3.15;;;2.90;;
9438;SDS011;5176;42.622;25.386;2023-07-29T01:49:31;3.65;;;3.35;;
9438;SDS011;5176;42.622;25.386;2023-07-29T01:51:58;3.83;;;3.47;;
9438;SDS011;5176;42.622;25.386;2023-07-29T01:54:25;3.95;;;3.65;;
9438;SDS011;5176;42.622;25.386;2023-07-29T01:56:54;4.90;;;3.45;;
9438;SDS011;5176;42.622;25.386;2023-07-29T01:59:21;5.18;;;3.80;;
9438;SDS011;5176;42.622;25.386;2023-07-29T02:01:48;3.72;;;3.42;;
9438;SDS011;5176;42.622;25.386;2023-07-29T02:04:15;4.45;;;4.05;;
9438;SDS011;5176;42.622;25.386;2023-07-29T02:06:42;4.72;;;3.80;;
9438;SDS011;5176;42.622;25.386;2023-07-29T02:09:10;5.05;;;3.58;;
9438;SDS011;5176;42.622;25.386;2023-07-29T02:11:37;6.82;;;3.80;;
9438;SDS011;5176;42.622;25.386;2023-07-29T02:14:06;4.32;;;3.92;;
9438;SDS011;5176;42.622;25.386;2023-07-29T02:16:33;4.07;;;3.78;;
9438;SDS011;5176;42.622;25.386;2023-07-29T02:19:00;3.88;;;3.58;;
9438;SDS011;5176;42.622;25.386;2023-07-29T02:21:28;4.30;;;3.90;;
9438;SDS011;5176;42.622;25.386;2023-07-29T02:23:55;4.45;;;4.05;;
9438;SDS011;5176;42.622;25.386;2023-07-29T02:26:23;4.03;;;3.53;;
9438;SDS011;5176;42.622;25.386;2023-07-29T02:28:50;3.83;;;3.53;;
9438;SDS011;5176;42.622;25.386;2023-07-29T02:31:21;3.75;;;3.45;;
9438;SDS011;5176;42.622;25.386;2023-07-29T02:33:49;7.70;;;3.92;;
9438;SDS011;5176;42.622;25.386;2023-07-29T02:36:17;4.10;;;3.70;;
9438;SDS011;5176;42.622;25.386;2023-07-29T02:38:44;4.10;;;3.70;;
9438;SDS011;5176;42.622;25.386;2023-07-29T02:41:11;3.90;;;3.60;;
9438;SDS011;5176;42.622;25.386;2023-07-29T02:43:41;3.88;;;3.58;;
9438;SDS011;5176;42.622;25.386;2023-07-29T02:46:08;4.80;;;3.90;;
9438;SDS011;5176;42.622;25.386;2023-07-29T02:48:37;4.00;;;3.70;;
9438;SDS011;5176;42.622;25.386;2023-07-29T02:51:04;7.90;;;3.60;;
9438;SDS011;5176;42.622;25.386;2023-07-29T02:53:31;4.07;;;3.70;;
9438;SDS011;5176;42.622;25.386;2023-07-29T02:55:58;5.75;;;4.05;;
9438;SDS011;5176;42.622;25.386;2023-07-29T02:58:26;4.57;;;4.18;;
9438;SDS011;5176;42.622;25.386;2023-07-29T03:00:53;4.97;;;4.45;;
9438;SDS011;5176;42.622;25.386;2023-07-29T03:03:20;4.25;;;3.85;;
9438;SDS011;5176;42.622;25.386;2023-07-29T03:05:49;4.18;;;3.85;;
9438;SDS011;5176;42.622;25.386;2023-07-29T03:08:16;4.15;;;3.58;;
9438;SDS011;5176;42.622;25.386;2023-07-29T03:10:44;4.22;;;3.72;;
9438;SDS011;5176;42.622;25.386;2023-07-29T03:13:11;6.20;;;3.92;;
9438;SDS011;5176;42.622;25.386;2023-07-29T03:15:38;5.00;;;4.47;;
9438;SDS011;5176;42.622;25.386;2023-07-29T03:18:05;5.60;;;4.13;;
9438;SDS011;5176;42.622;25.386;2023-07-29T03:20:33;4.20;;;3.80;;
9438;SDS011;5176;42.622;25.386;2023-07-29T03:23:02;4.47;;;4.07;;
9438;SDS011;5176;42.622;25.386;2023-07-29T03:25:29;4.38;;;3.97;;
9438;SDS011;5176;42.622;25.386;2023-07-29T03:27:57;4.75;;;4.32;;
9438;SDS011;5176;42.622;25.386;2023-07-29T03:30:24;5.10;;;4.50;;
9438;SDS011;5176;42.622;25.386;2023-07-29T03:32:52;5.00;;;4.50;;
9438;SDS011;5176;42.622;25.386;2023-07-29T03:35:19;5.13;;;4.28;;
9438;SDS011;5176;42.622;25.386;2023-07-29T03:37:46;4.90;;;4.40;;
9438;SDS011;5176;42.622;25.386;2023-07-29T03:40:15;4.47;;;4.10;;
9438;SDS011;5176;42.622;25.386;2023-07-29T03:42:42;7.47;;;4.15;;
9438;SDS011;5176;42.622;25.386;2023-07-29T03:45:09;5.60;;;4.20;;
9438;SDS011;5176;42.622;25.386;2023-07-29T03:47:37;4.60;;;4.20;;
9438;SDS011;5176;42.622;25.386;2023-07-29T03:50:04;4.03;;;3.67;;
9438;SDS011;5176;42.622;25.386;2023-07-29T03:52:32;3.87;;;3.57;;
9438;SDS011;5176;42.622;25.386;2023-07-29T03:54:59;4.55;;;4.25;;
9438;SDS011;5176;42.622;25.386;2023-07-29T03:57:28;4.60;;;4.10;;
9438;SDS011;5176;42.622;25.386;2023-07-29T03:59:55;4.10;;;3.80;;
9438;SDS011;5176;42.622;25.386;2023-07-29T04:02:22;4.60;;;4.20;;
9438;SDS011;5176;42.622;25.386;2023-07-29T04:04:50;4.90;;;4.32;;
9438;SDS011;5176;42.622;25.386;2023-07-29T04:07:17;4.60;;;4.15;;
9438;SDS011;5176;42.622;25.386;2023-07-29T04:09:44;4.30;;;3.92;;
9438;SDS011;5176;42.622;25.386;2023-07-29T04:12:11;4.82;;;4.43;;
9438;SDS011;5176;42.622;25.386;2023-07-29T04:14:40;4.87;;;4.30;;
9438;SDS011;5176;42.622;25.386;2023-07-29T04:17:08;4.32;;;3.92;;
9438;SDS011;5176;42.622;25.386;2023-07-29T04:19:35;4.97;;;4.28;;
9438;SDS011;5176;42.622;25.386;2023-07-29T04:22:02;3.97;;;3.67;;
9438;SDS011;5176;42.622;25.386;2023-07-29T04:24:30;5.57;;;3.95;;
9438;SDS011;5176;42.622;25.386;2023-07-29T04:26:57;4.35;;;4.03;;
9438;SDS011;5176;42.622;25.386;2023-07-29T04:29:24;4.05;;;3.75;;
9438;SDS011;5176;42.622;25.386;2023-07-29T04:31:53;6.97;;;4.20;;
9438;SDS011;5176;42.622;25.386;2023-07-29T04:34:20;4.65;;;4.25;;
9438;SDS011;5176;42.622;25.386;2023-07-29T04:36:48;4.97;;;4.45;;
9438;SDS011;5176;42.622;25.386;2023-07-29T04:39:15;4.30;;;3.90;;
9438;SDS011;5176;42.622;25.386;2023-07-29T04:41:43;4.68;;;4.18;;
9438;SDS011;5176;42.622;25.386;2023-07-29T04:44:10;4.47;;;3.88;;
9438;SDS011;5176;42.622;25.386;2023-07-29T04:46:37;4.10;;;3.80;;
9438;SDS011;5176;42.622;25.386;2023-07-29T04:49:06;5.05;;;3.53;;
9438;SDS011;5176;42.622;25.386;2023-07-29T04:51:33;4.55;;;4.15;;
9438;SDS011;5176;42.622;25.386;2023-07-29T04:54:02;5.20;;;3.90;;
9438;SDS011;5176;42.622;25.386;2023-07-29T04:56:30;4.93;;;4.07;;
9438;SDS011;5176;42.622;25.386;2023-07-29T04:58:57;4.40;;;3.97;;
9438;SDS011;5176;42.622;25.386;2023-07-29T05:01:24;4.72;;;3.60;;
9438;SDS011;5176;42.622;25.386;2023-07-29T05:03:51;4.85;;;4.10;;
9438;SDS011;5176;42.622;25.386;2023-07-29T05:06:20;5.28;;;3.85;;
9438;SDS011;5176;42.622;25.386;2023-07-29T05:08:47;4.70;;;3.85;;
9438;SDS011;5176;42.622;25.386;2023-07-29T05:11:14;4.05;;;3.65;;
9438;SDS011;5176;42.622;25.386;2023-07-29T05:13:41;6.03;;;4.25;;
9438;SDS011;5176;42.622;25.386;2023-07-29T05:16:09;3.72;;;3.42;;
9438;SDS011;5176;42.622;25.386;2023-07-29T05:18:36;3.95;;;3.65;;
9438;SDS011;5176;42.622;25.386;2023-07-29T05:21:04;3.80;;;3.50;;
9438;SDS011;5176;42.622;25.386;2023-07-29T05:23:33;4.13;;;3.70;;
9438;SDS011;5176;42.622;25.386;2023-07-29T05:26:00;3.50;;;3.20;;
9438;SDS011;5176;42.622;25.386;2023-07-29T05:28:27;3.63;;;3.42;;
9438;SDS011;5176;42.622;25.386;2023-07-29T05:30:54;3.90;;;3.47;;
9438;SDS011;5176;42.622;25.386;2023-07-29T05:33:21;5.72;;;3.65;;
9438;SDS011;5176;42.622;25.386;2023-07-29T05:35:49;3.60;;;3.30;;
9438;SDS011;5176;42.622;25.386;2023-07-29T05:38:16;3.80;;;3.50;;
9438;SDS011;5176;42.622;25.386;2023-07-29T05:40:44;5.28;;;3.63;;
9438;SDS011;5176;42.622;25.386;2023-07-29T05:43:12;5.38;;;4.35;;
9438;SDS011;5176;42.622;25.386;2023-07-29T05:45:39;6.68;;;4.15;;
9438;SDS011;5176;42.622;25.386;2023-07-29T05:48:07;4.00;;;3.70;;
9438;SDS011;5176;42.622;25.386;2023-07-29T05:50:34;3.95;;;3.42;;
9438;SDS011;5176;42.622;25.386;2023-07-29T05:53:01;4.13;;;3.80;;
9438;SDS011;5176;42.622;25.386;2023-07-29T05:55:28;5.38;;;3.70;;
9438;SDS011;5176;42.622;25.386;2023-07-29T05:57:57;4.10;;;3.67;;
9438;SDS011;5176;42.622;25.386;2023-07-29T06:00:24;5.25;;;3.70;;
9438;SDS011;5176;42.622;25.386;2023-07-29T06:02:51;4.10;;;3.70;;
9438;SDS011;5176;42.622;25.386;2023-07-29T06:05:19;3.85;;;3.47;;
9438;SDS011;5176;42.622;25.386;2023-07-29T06:07:46;4.43;;;4.03;;
9438;SDS011;5176;42.622;25.386;2023-07-29T06:10:14;5.20;;;4.70;;
9438;SDS011;5176;42.622;25.386;2023-07-29T06:12:43;4.90;;;4.30;;
9438;SDS011;5176;42.622;25.386;2023-07-29T06:15:12;4.47;;;4.07;;
9438;SDS011;5176;42.622;25.386;2023-07-29T06:17:39;4.53;;;4.13;;
9438;SDS011;5176;42.622;25.386;2023-07-29T06:20:07;4.82;;;4.32;;
9438;SDS011;5176;42.622;25.386;2023-07-29T06:22:35;3.72;;;3.42;;
9438;SDS011;5176;42.622;25.386;2023-07-29T06:25:02;3.80;;;3.50;;
9438;SDS011;5176;42.622;25.386;2023-07-29T06:27:30;4.15;;;3.00;;
9438;SDS011;5176;42.622;25.386;2023-07-29T06:29:57;3.05;;;2.83;;
9438;SDS011;5176;42.622;25.386;2023-07-29T06:32:26;3.67;;;3.40;;
9438;SDS011;5176;42.622;25.386;2023-07-29T06:34:53;4.05;;;3.30;;
9438;SDS011;5176;42.622;25.386;2023-07-29T06:37:20;3.15;;;2.95;;
9438;SDS011;5176;42.622;25.386;2023-07-29T06:39:47;3.28;;;2.97;;
9438;SDS011;5176;42.622;25.386;2023-07-29T06:42:14;4.97;;;3.17;;
9438;SDS011;5176;42.622;25.386;2023-07-29T06:44:42;12.93;;;11.77;;
9438;SDS011;5176;42.622;25.386;2023-07-29T06:47:11;5.10;;;4.60;;
9438;SDS011;5176;42.622;25.386;2023-07-29T06:49:40;4.10;;;3.70;;
9438;SDS011;5176;42.622;25.386;2023-07-29T06:52:07;14.25;;;9.57;;
9438;SDS011;5176;42.622;25.386;2023-07-29T06:54:34;7.22;;;6.03;;
9438;SDS011;5176;42.622;25.386;2023-07-29T06:57:02;4.97;;;4.40;;
9438;SDS011;5176;42.622;25.386;2023-07-29T06:59:30;6.35;;;4.72;;
9438;SDS011;5176;42.622;25.386;2023-07-29T07:01:57;5.90;;;5.30;;
9438;SDS011;5176;42.622;25.386;2023-07-29T07:04:25;3.88;;;3.55;;
9438;SDS011;5176;42.622;25.386;2023-07-29T07:06:54;4.57;;;3.80;;
9438;SDS011;5176;42.622;25.386;2023-07-29T07:09:21;3.63;;;3.42;;
9438;SDS011;5176;42.622;25.386;2023-07-29T07:11:48;7.63;;;3.83;;
9438;SDS011;5176;42.622;25.386;2023-07-29T07:14:16;3.63;;;3.33;;
9438;SDS011;5176;42.622;25.386;2023-07-29T07:16:43;5.25;;;3.60;;
9438;SDS011;5176;42.622;25.386;2023-07-29T07:19:10;3.92;;;3.55;;
9438;SDS011;5176;42.622;25.386;2023-07-29T07:21:38;3.95;;;3.45;;
9438;SDS011;5176;42.622;25.386;2023-07-29T07:24:07;7.22;;;3.60;;
9438;SDS011;5176;42.622;25.386;2023-07-29T07:26:34;4.13;;;3.30;;
9438;SDS011;5176;42.622;25.386;2023-07-29T07:29:01;3.83;;;3.10;;
9438;SDS011;5176;42.622;25.386;2023-07-29T07:31:28;3.60;;;3.30;;
9438;SDS011;5176;42.622;25.386;2023-07-29T07:33:59;5.25;;;4.75;;
9438;SDS011;5176;42.622;25.386;2023-07-29T07:36:27;7.05;;;4.80;;
9438;SDS011;5176;42.622;25.386;2023-07-29T07:38:55;4.55;;;3.47;;
9438;SDS011;5176;42.622;25.386;2023-07-29T07:41:23;4.38;;;3.40;;
9438;SDS011;5176;42.622;25.386;2023-07-29T07:43:51;5.35;;;4.95;;
9438;SDS011;5176;42.622;25.386;2023-07-29T07:46:18;3.50;;;3.08;;
9438;SDS011;5176;42.622;25.386;2023-07-29T07:48:45;3.40;;;2.90;;
9438;SDS011;5176;42.622;25.386;2023-07-29T07:51:12;3.25;;;2.97;;
9438;SDS011;5176;42.622;25.386;2023-07-29T07:53:40;3.05;;;2.85;;
9438;SDS011;5176;42.622;25.386;2023-07-29T07:56:07;3.55;;;2.60;;
9438;SDS011;5176;42.622;25.386;2023-07-29T07:58:36;3.13;;;2.90;;
9438;SDS011;5176;42.622;25.386;2023-07-29T08:01:03;3.15;;;2.95;;
9438;SDS011;5176;42.622;25.386;2023-07-29T08:03:31;5.07;;;3.08;;
9438;SDS011;5176;42.622;25.386;2023-07-29T08:05:58;3.20;;;3.00;;
9438;SDS011;5176;42.622;25.386;2023-07-29T08:08:26;3.00;;;2.70;;
9438;SDS011;5176;42.622;25.386;2023-07-29T08:10:53;5.95;;;2.90;;
9438;SDS011;5176;42.622;25.386;2023-07-29T08:13:21;3.88;;;3.55;;
9438;SDS011;5176;42.622;25.386;2023-07-29T08:15:50;3.47;;;3.28;;
9438;SDS011;5176;42.622;25.386;2023-07-29T08:18:18;3.50;;;3.20;;
9438;SDS011;5176;42.622;25.386;2023-07-29T08:20:52;5.38;;;3.28;;
9438;SDS011;5176;42.622;25.386;2023-07-29T08:23:20;4.20;;;3.85;;
9438;SDS011;5176;42.622;25.386;2023-07-29T08:25:51;3.88;;;3.17;;
9438;SDS011;5176;42.622;25.386;2023-07-29T08:28:19;4.72;;;3.35;;
9438;SDS011;5176;42.622;25.386;2023-07-29T08:30:46;4.85;;;3.03;;
9438;SDS011;5176;42.622;25.386;2023-07-29T08:33:15;2.92;;;2.72;;
9438;SDS011;5176;42.622;25.386;2023-07-29T08:35:42;3.80;;;3.03;;
9438;SDS011;5176;42.622;25.386;2023-07-29T08:38:09;3.00;;;2.80;;
9438;SDS011;5176;42.622;25.386;2023-07-29T08:40:37;3.10;;;2.90;;
9438;SDS011;5176;42.622;25.386;2023-07-29T08:43:09;2.90;;;2.70;;
9438;SDS011;5176;42.622;25.386;2023-07-29T08:45:38;3.08;;;2.65;;
9438;SDS011;5176;42.622;25.386;2023-07-29T08:48:07;3.28;;;3.00;;
9438;SDS011;5176;42.622;25.386;2023-07-29T08:50:37;3.10;;;2.85;;
9438;SDS011;5176;42.622;25.386;2023-07-29T08:53:05;5.40;;;3.08;;
9438;SDS011;5176;42.622;25.386;2023-07-29T08:55:33;3.33;;;3.10;;
9438;SDS011;5176;42.622;25.386;2023-07-29T08:58:00;2.90;;;2.70;;
9438;SDS011;5176;42.622;25.386;2023-07-29T09:00:29;3.33;;;3.13;;
9438;SDS011;5176;42.622;25.386;2023-07-29T09:02:57;3.47;;;3.00;;
9438;SDS011;5176;42.622;25.386;2023-07-29T09:05:28;3.92;;;2.95;;
9438;SDS011;5176;42.622;25.386;2023-07-29T09:07:57;3.13;;;2.92;;
9438;SDS011;5176;42.622;25.386;2023-07-29T09:10:25;3.30;;;3.00;;
9438;SDS011;5176;42.622;25.386;2023-07-29T09:12:52;3.67;;;3.38;;
9438;SDS011;5176;42.622;25.386;2023-07-29T09:15:26;3.97;;;3.22;;
9438;SDS011;5176;42.622;25.386;2023-07-29T09:17:55;2.97;;;2.78;;
9438;SDS011;5176;42.622;25.386;2023-07-29T09:20:25;2.75;;;2.65;;
9438;SDS011;5176;42.622;25.386;2023-07-29T09:22:54;2.88;;;2.67;;
9438;SDS011;5176;42.622;25.386;2023-07-29T09:25:25;3.10;;;2.90;;
9438;SDS011;5176;42.622;25.386;2023-07-29T09:27:56;5.13;;;2.90;;
9438;SDS011;5176;42.622;25.386;2023-07-29T09:30:26;3.63;;;3.05;;
9438;SDS011;5176;42.622;25.386;2023-07-29T09:32:54;2.97;;;2.78;;
9438;SDS011;5176;42.622;25.386;2023-07-29T09:35:22;2.85;;;2.65;;
9438;SDS011;5176;42.622;25.386;2023-07-29T09:37:50;3.20;;;3.00;;
9438;SDS011;5176;42.622;25.386;2023-07-29T09:40:19;3.95;;;3.25;;
9438;SDS011;5176;42.622;25.386;2023-07-29T09:42:49;3.38;;;2.85;;
9438;SDS011;5176;42.622;25.386;2023-07-29T09:45:21;3.45;;;3.03;;
9438;SDS011;5176;42.622;25.386;2023-07-29T09:47:49;3.08;;;2.85;;
9438;SDS011;5176;42.622;25.386;2023-07-29T09:50:17;3.17;;;2.92;;
9438;SDS011;5176;42.622;25.386;2023-07-29T09:52:44;3.53;;;3.33;;
9438;SDS011;5176;42.622;25.386;2023-07-29T09:55:13;3.47;;;3.17;;
9438;SDS011;5176;42.622;25.386;2023-07-29T09:57:46;2.80;;;2.60;;
9438;SDS011;5176;42.622;25.386;2023-07-29T10:00:14;2.70;;;2.60;;
9438;SDS011;5176;42.622;25.386;2023-07-29T10:02:42;4.97;;;3.28;;
9438;SDS011;5176;42.622;25.386;2023-07-29T10:05:10;3.47;;;3.28;;
9438;SDS011;5176;42.622;25.386;2023-07-29T10:07:38;3.63;;;3.40;;
9438;SDS011;5176;42.622;25.386;2023-07-29T10:10:06;3.15;;;2.95;;
9438;SDS011;5176;42.622;25.386;2023-07-29T10:12:37;3.25;;;3.05;;
9438;SDS011;5176;42.622;25.386;2023-07-29T10:15:08;3.22;;;2.90;;
9438;SDS011;5176;42.622;25.386;2023-07-29T10:17:36;3.22;;;2.67;;
9438;SDS011;5176;42.622;25.386;2023-07-29T10:20:05;3.20;;;3.00;;
9438;SDS011;5176;42.622;25.386;2023-07-29T10:22:35;2.88;;;2.67;;
9438;SDS011;5176;42.622;25.386;2023-07-29T10:25:04;3.00;;;2.80;;
9438;SDS011;5176;42.622;25.386;2023-07-29T10:27:35;3.08;;;2.75;;
9438;SDS011;5176;42.622;25.386;2023-07-29T10:30:13;3.58;;;3.00;;
9438;SDS011;5176;42.622;25.386;2023-07-29T10:32:41;2.85;;;2.58;;
9438;SDS011;5176;42.622;25.386;2023-07-29T10:35:10;3.03;;;2.83;;
9438;SDS011;5176;42.622;25.386;2023-07-29T10:37:38;3.10;;;2.90;;
9438;SDS011;5176;42.622;25.386;2023-07-29T10:40:07;3.38;;;3.10;;
9438;SDS011;5176;42.622;25.386;2023-07-29T10:42:36;3.28;;;3.08;;
9438;SDS011;5176;42.622;25.386;2023-07-29T10:45:21;4.05;;;2.90;;
9438;SDS011;5176;42.622;25.386;2023-07-29T10:47:48;3.17;;;2.97;;
9438;SDS011;5176;42.622;25.386;2023-07-29T10:50:19;3.20;;;3.00;;
9438;SDS011;5176;42.622;25.386;2023-07-29T10:52:50;3.10;;;2.90;;
9438;SDS011;5176;42.622;25.386;2023-07-29T10:55:25;3.08;;;2.88;;
9438;SDS011;5176;42.622;25.386;2023-07-29T11:00:43;6.93;;;3.33;;
9438;SDS011;5176;42.622;25.386;2023-07-29T11:03:12;3.47;;;2.60;;
9438;SDS011;5176;42.622;25.386;2023-07-29T11:05:42;3.05;;;2.83;;
9438;SDS011;5176;42.622;25.386;2023-07-29T11:08:16;3.22;;;3.03;;
9438;SDS011;5176;42.622;25.386;2023-07-29T11:10:45;4.57;;;2.85;;
9438;SDS011;5176;42.622;25.386;2023-07-29T11:13:25;3.17;;;2.97;;
9438;SDS011;5176;42.622;25.386;2023-07-29T11:15:55;2.92;;;2.70;;
9438;SDS011;5176;42.622;25.386;2023-07-29T11:18:25;3.00;;;2.80;;
9438;SDS011;5176;42.622;25.386;2023-07-29T11:20:56;3.03;;;2.83;;
9438;SDS011;5176;42.622;25.386;2023-07-29T11:23:31;3.45;;;2.80;;
9438;SDS011;5176;42.622;25.386;2023-07-29T11:25:59;2.60;;;2.40;;
9438;SDS011;5176;42.622;25.386;2023-07-29T11:28:26;2.50;;;2.40;;
9438;SDS011;5176;42.622;25.386;2023-07-29T11:30:56;2.55;;;2.38;;
9438;SDS011;5176;42.622;25.386;2023-07-29T11:33:25;2.58;;;2.47;;
9438;SDS011;5176;42.622;25.386;2023-07-29T11:35:54;2.70;;;2.50;;
9438;SDS011;5176;42.622;25.386;2023-07-29T11:38:21;2.67;;;2.58;;
9438;SDS011;5176;42.622;25.386;2023-07-29T11:40:55;3.20;;;2.90;;
9438;SDS011;5176;42.622;25.386;2023-07-29T11:43:25;2.80;;;2.60;;
9438;SDS011;5176;42.622;25.386;2023-07-29T11:45:53;2.78;;;2.55;;
9438;SDS011;5176;42.622;25.386;2023-07-29T11:48:28;3.50;;;2.58;;
9438;SDS011;5176;42.622;25.386;2023-07-29T11:50:57;2.67;;;2.47;;
9438;SDS011;5176;42.622;25.386;2023-07-29T11:53:26;2.75;;;2.55;;
9438;SDS011;5176;42.622;25.386;2023-07-29T11:55:55;3.20;;;3.00;;
9438;SDS011;5176;42.622;25.386;2023-07-29T11:58:23;2.53;;;2.33;;
9438;SDS011;5176;42.622;25.386;2023-07-29T12:00:50;2.80;;;2.60;;
9438;SDS011;5176;42.622;25.386;2023-07-29T12:03:18;3.15;;;1.92;;
9438;SDS011;5176;42.622;25.386;2023-07-29T12:05:47;2.05;;;1.95;;
9438;SDS011;5176;42.622;25.386;2023-07-29T12:08:15;1.98;;;1.88;;
9438;SDS011;5176;42.622;25.386;2023-07-29T12:10:42;2.72;;;2.53;;
9438;SDS011;5176;42.622;25.386;2023-07-29T12:13:10;2.35;;;2.25;;
9438;SDS011;5176;42.622;25.386;2023-07-29T12:15:37;1.75;;;1.65;;
9438;SDS011;5176;42.622;25.386;2023-07-29T12:18:06;2.15;;;2.05;;
9438;SDS011;5176;42.622;25.386;2023-07-29T12:20:33;2.00;;;1.90;;
9438;SDS011;5176;42.622;25.386;2023-07-29T12:23:02;2.80;;;2.60;;
9438;SDS011;5176;42.622;25.386;2023-07-29T12:25:31;2.63;;;2.50;;
9438;SDS011;5176;42.622;25.386;2023-07-29T12:28:02;2.70;;;2.53;;
9438;SDS011;5176;42.622;25.386;2023-07-29T12:30:30;3.10;;;2.90;;
9438;SDS011;5176;42.622;25.386;2023-07-29T12:32:57;2.70;;;2.50;;
9438;SDS011;5176;42.622;25.386;2023-07-29T12:35:24;2.70;;;2.50;;
9438;SDS011;5176;42.622;25.386;2023-07-29T12:38:02;2.20;;;2.10;;
9438;SDS011;5176;42.622;25.386;2023-07-29T12:40:30;2.78;;;2.20;;
9438;SDS011;5176;42.622;25.386;2023-07-29T12:42:57;2.17;;;2.08;;
9438;SDS011;5176;42.622;25.386;2023-07-29T12:45:24;1.90;;;1.80;;
9438;SDS011;5176;42.622;25.386;2023-07-29T12:47:54;2.15;;;1.98;;
9438;SDS011;5176;42.622;25.386;2023-07-29T12:50:22;2.25;;;2.15;;
9438;SDS011;5176;42.622;25.386;2023-07-29T12:52:49;2.20;;;2.10;;
9438;SDS011;5176;42.622;25.386;2023-07-29T12:55:18;2.42;;;1.90;;
9438;SDS011;5176;42.622;25.386;2023-07-29T12:57:45;1.73;;;1.63;;
9438;SDS011;5176;42.622;25.386;2023-07-29T13:00:12;1.85;;;1.75;;
9438;SDS011;5176;42.622;25.386;2023-07-29T13:02:40;3.80;;;2.00;;
9438;SDS011;5176;42.622;25.386;2023-07-29T13:05:08;2.10;;;2.00;;
9438;SDS011;5176;42.622;25.386;2023-07-29T13:07:37;1.90;;;1.80;;
9438;SDS011;5176;42.622;25.386;2023-07-29T13:10:05;2.15;;;2.05;;
9438;SDS011;5176;42.622;25.386;2023-07-29T13:12:34;2.08;;;1.98;;
9438;SDS011;5176;42.622;25.386;2023-07-29T13:15:02;2.47;;;2.30;;
9438;SDS011;5176;42.622;25.386;2023-07-29T13:17:29;2.25;;;2.08;;
9438;SDS011;5176;42.622;25.386;2023-07-29T13:19:57;1.58;;;1.50;;
9438;SDS011;5176;42.622;25.386;2023-07-29T13:22:24;1.80;;;1.70;;
9438;SDS011;5176;42.622;25.386;2023-07-29T13:24:51;1.70;;;1.67;;
9438;SDS011;5176;42.622;25.386;2023-07-29T13:27:18;1.80;;;1.70;;
9438;SDS011;5176;42.622;25.386;2023-07-29T13:29:47;1.85;;;1.75;;
9438;SDS011;5176;42.622;25.386;2023-07-29T13:32:14;1.75;;;1.65;;
9438;SDS011;5176;42.622;25.386;2023-07-29T13:34:41;1.65;;;1.63;;
9438;SDS011;5176;42.622;25.386;2023-07-29T13:37:08;1.80;;;1.70;;
9438;SDS011;5176;42.622;25.386;2023-07-29T13:39:35;1.77;;;1.67;;
9438;SDS011;5176;42.622;25.386;2023-07-29T13:42:03;2.45;;;1.88;;
9438;SDS011;5176;42.622;25.386;2023-07-29T13:44:30;1.48;;;1.38;;
9438;SDS011;5176;42.622;25.386;2023-07-29T13:46:58;1.90;;;1.80;;
9438;SDS011;5176;42.622;25.386;2023-07-29T13:49:26;1.95;;;1.85;;
9438;SDS011;5176;42.622;25.386;2023-07-29T13:51:53;2.20;;;2.00;;
9438;SDS011;5176;42.622;25.386;2023-07-29T13:54:20;1.85;;;1.55;;
9438;SDS011;5176;42.622;25.386;2023-07-29T13:56:47;1.90;;;1.80;;
9438;SDS011;5176;42.622;25.386;2023-07-29T13:59:14;1.98;;;1.88;;
9438;SDS011;5176;42.622;25.386;2023-07-29T14:01:42;2.50;;;2.30;;
9438;SDS011;5176;42.622;25.386;2023-07-29T14:04:10;2.08;;;1.58;;
9438;SDS011;5176;42.622;25.386;2023-07-29T14:06:38;1.88;;;1.77;;
9438;SDS011;5176;42.622;25.386;2023-07-29T14:09:05;1.95;;;1.77;;
9438;SDS011;5176;42.622;25.386;2023-07-29T14:11:32;3.40;;;2.00;;
9438;SDS011;5176;42.622;25.386;2023-07-29T14:13:59;1.80;;;1.70;;
9438;SDS011;5176;42.622;25.386;2023-07-29T14:16:26;1.90;;;1.80;;
9438;SDS011;5176;42.622;25.386;2023-07-29T14:18:54;6.80;;;2.42;;
9438;SDS011;5176;42.622;25.386;2023-07-29T14:21:22;2.50;;;1.98;;
9438;SDS011;5176;42.622;25.386;2023-07-29T14:23:50;2.30;;;2.20;;
9438;SDS011;5176;42.622;25.386;2023-07-29T14:26:17;7.05;;;2.30;;
9438;SDS011;5176;42.622;25.386;2023-07-29T14:28:44;2.10;;;1.90;;
9438;SDS011;5176;42.622;25.386;2023-07-29T14:31:11;2.53;;;2.33;;
9438;SDS011;5176;42.622;25.386;2023-07-29T14:33:39;2.10;;;2.00;;
9438;SDS011;5176;42.622;25.386;2023-07-29T14:36:06;2.22;;;2.10;;
9438;SDS011;5176;42.622;25.386;2023-07-29T14:38:35;2.40;;;2.20;;
9438;SDS011;5176;42.622;25.386;2023-07-29T14:41:02;5.05;;;2.65;;
9438;SDS011;5176;42.622;25.386;2023-07-29T14:43:30;2.70;;;2.50;;
9438;SDS011;5176;42.622;25.386;2023-07-29T14:45:57;3.13;;;2.15;;
9438;SDS011;5176;42.622;25.386;2023-07-29T14:48:25;2.97;;;2.60;;
9438;SDS011;5176;42.622;25.386;2023-07-29T14:50:52;2.67;;;2.47;;
9438;SDS011;5176;42.622;25.386;2023-07-29T14:53:19;2.45;;;2.25;;
9438;SDS011;5176;42.622;25.386;2023-07-29T14:55:48;2.38;;;2.10;;
9438;SDS011;5176;42.622;25.386;2023-07-29T14:58:15;2.10;;;2.00;;
9438;SDS011;5176;42.622;25.386;2023-07-29T15:00:42;2.58;;;2.35;;
9438;SDS011;5176;42.622;25.386;2023-07-29T15:03:10;2.45;;;2.30;;
9438;SDS011;5176;42.622;25.386;2023-07-29T15:05:37;2.33;;;2.13;;
9438;SDS011;5176;42.622;25.386;2023-07-29T15:08:05;2.28;;;2.10;;
9438;SDS011;5176;42.622;25.386;2023-07-29T15:10:33;2.10;;;2.00;;
9438;SDS011;5176;42.622;25.386;2023-07-29T15:13:01;2.00;;;1.90;;